Lewiston Nez Perce County Airport
KLWS : now visible

Airfield :











YOU CAN JOIN US ON...

 
LOGIN :

Register | Disclaimer

   EN    FR    IT 

 









Legend :    VFR   Marginal VFR   IFR   Intensive IFR   Very Intensive IFR
Visi :
Ceiling :
>= 8 km
>= 3000ft
5 to 8 km
1000 to 3000 ft
1500m to 5 km
500 to 1000 ft
800 to 1500m
200 to 500 ft
< 800m
< 200 ft
Symbols :   Thunderstorms  Fog  Heavy snow  Heavy precipitations  Wind > 20 kt






- Airport Elevation : 1442 ft
- IATA code : LWS


KLWS - Lewiston Nez Perce County

CURRENT METAR :
  • 230956Z AUTO 18008KT 10SM OVC050 08/04 A2999 RMK AO2 SLP156 T00830039

EXPIRED METARs :
  • 230856Z AUTO 18006KT 10SM BKN042 OVC060 08/04 A2998 RMK AO2 SLP155 60000 T00830039 51005
  • 230756Z AUTO 20004KT 10SM BKN042 OVC060 08/05 A2998 RMK AO2 RAB04E56 SLP154 P0000 T00830050 401560083
  • 230656Z AUTO 00000KT 10SM BKN045 OVC070 09/06 A2998 RMK AO2 RAB27E38 SLP152 P0000 T00890056
  • 230556Z 14006KT 10SM SCT050 OVC065 08/06 A2996 RMK AO2 RAE03B26E39 SLP150 P0000 60001 T00830056 10150 20083 51014

TAF KLWS
Valid from the 23 at 06:00 until the 24 at 06:00 UTC


230520Z 2306/2406 VRB05KT P6SM BKN050 OVC100
PROB30 2307/2311 6SM -RA OVC040
FM231100 VRB03KT P6SM OVC040
FM231800 06005KT P6SM BKN060
KZSE FIR / North America



MET'MAP, your aeronautical weather chart ! - Copyright ORBIFLY December 2007 - Disclaimer

ORBIFLY MET'MAP TEAM :

Programming & Development : Alexandra Zaïnal
Original concept : Baudouin d'Aumeries
Technical & hardware support : Manuel Goepfert
Assistance : Marc-Olivier Méhu




SOURCES & CREDITS :

   NOAA       Earth
Advisory